Celle, Germany

4:33 AM CEST on September 03, 2015 (GMT +0200)
Celle Army | | Change Station
CLOSE
Current Station
Airport
Location: Celle,
Elevation: 171 ft
Nearby Weather Stations

Elev 171 ft 52.60 °N, 10.03 °E | Updated 13 minutes ago

Shallow Fog
Shallow Fog
48 °F
Feels Like 48 °F
N
1
Wind Variable Wind from SSE

Today
High -- | Low -- °F
--% Chance of Precip.
Yesterday
High -- | Low -- °F
Precip. -- in
6:33 AM 8:04 PM
Waning Gibbous, 75% visible
Pressure 29.95 in
Visibility 6.2 miles
Clouds Few 8000 ft
Scattered Clouds 25000 ft
Dew Point 46 °F
Humidity 93%
Rainfall 0.00 in
Snow Depth Not available.
UV 0 out of 12
Pollen Not available.
Air Quality Not available.
Flu Activity Not available.
METAR ETHC 030220Z 16001KT 9999 MIFG FEW080 SCT250 09/08 Q1014 BLU+
Pressure 29.95 in
Visibility 6.2 miles
Clouds Few 8000 ft
Scattered Clouds 25000 ft
Dew Point 46 °F
Humidity 93%
Rainfall 0.00 in
Snow Depth Not available.
UV 0 out of 12
Pollen Not available.
Air Quality Not available.
Flu Activity Not available.
METAR ETHC 030220Z 16001KT 9999 MIFG FEW080 SCT250 09/08 Q1014 BLU+

10-Day Weather Forecast

×

Almanac

Astronomy

Sep. 03, 2015 Rise Set
Actual Time
Civil Twilight
Nautical Twilight
Astronomical Twilight
Moon
Length of Visible Light
Length of Day
Tomorrow will be .
, % of the Moon is Illuminated

Today's Extremes

Country Highs Country Lows

Community

WunderPhotos

Upload Photos

1,851,879 photos uploaded!

WunderBlogs® & News

Nearby

Air Quality

  Air Quality AQ Index Pollutant
Not available.

Snow Depth

Station Depth Elevation

Earthquake Activity

City Distance Mag. Time & Date
Minimum magnitude displayed is 2.5.

Coastal Water Temperatures

Place Temperature

Stations

Nearby Weather Stations

Station Location Temp. Windchill Dew Point Humidity Wind Precip. Elev Updated Type